MUCF/CFG METAR and TAF weather

Enter ICAO airport designator
Station Type Date Time Source
MUCF METAR 2022/07/01 00:59 UTC NOAA

MUCF 010059Z AUTO 06005KT 26/24 Q1017


Station Type Date Time Source
MUCF Decoded METAR 2022/07/01 00:59 UTC NOAA

Cienfuegos, Las Villas, Cuba (MUCF) 22-09N 080-24W 39M
Jun 30, 2022 - 08:59 PM EDT / 2022.07.01 0059 UTC
Wind: from the ENE (060 degrees) at 6 MPH (5 KT):0
Temperature: 78 F (26 C)
Dew Point: 75 F (24 C)
Relative Humidity: 88%
Pressure (altimeter): 30.03 in. Hg (1017 hPa)
ob: MUCF 010059Z AUTO 06005KT 26/24 Q1017
cycle: 1

Station Type Date Time Source
MUCF TAF 2022/06/30 18:03 UTC NOAA

MUCF 301700Z 3018/0106 11008KT 9000 SCT020
BECMG 0101/0103 VRB02KT FEW030

Example: see airport list